Time;durP1;ratioP1;P1;durP2;ratioP2;P2;SDS_P1;SDS_P2;PMS_P1;PMS_P2;Temp;Humidity;BMP_temperature;BMP_pressure;BME280_temperature;BME280_humidity;BME280_pressure;Samples;Min_cycle;Max_cycle;Signal;HPM_P1;HPM_P2
2023/04/05 00:02:09;;;;;;;0.00;0.00;;;;;;;13.03;70.67;101202.22;7354572;19;20010;-60
2023/04/05 00:04:37;;;;;;;0.10;0.10;;;;;;;12.98;71.59;101198.84;7351364;19;20566;-61
2023/04/05 00:07:07;;;;;;;0.08;0.08;;;;;;;12.97;71.56;101202.34;7355878;19;20010;-61
2023/04/05 00:09:32;;;;;;;0.00;0.00;;;;;;;12.83;72.21;101183.50;7349977;19;20090;-61
2023/04/05 00:11:57;;;;;;;0.00;0.00;;;;;;;12.94;67.91;101197.19;7353782;19;20750;-60
2023/04/05 00:14:23;;;;;;;0.10;0.10;;;;;;;12.93;68.40;101201.56;7353329;19;20018;-61
2023/04/05 00:16:49;;;;;;;0.00;0.00;;;;;;;12.91;70.56;101197.25;7354336;19;20022;-61
2023/04/05 00:19:14;;;;;;;0.00;0.00;;;;;;;12.87;69.99;101198.22;7347020;19;20014;-61
2023/04/05 00:21:40;;;;;;;0.00;0.00;;;;;;;12.86;70.00;101194.75;7352049;19;20022;-61
2023/04/05 00:24:08;;;;;;;0.08;0.08;;;;;;;12.73;69.45;101170.59;7353396;19;20018;-60
2023/04/05 00:26:33;;;;;;;0.00;0.00;;;;;;;12.82;70.40;101187.84;7351331;19;20013;-61
2023/04/05 00:28:59;;;;;;;0.00;0.00;;;;;;;12.82;68.49;101186.97;7352935;19;20019;-61
2023/04/05 00:31:24;;;;;;;0.00;0.00;;;;;;;12.75;69.33;101169.69;7348615;19;20010;-61
2023/04/05 00:33:50;;;;;;;0.10;0.10;;;;;;;12.79;67.88;101187.06;7351768;19;20082;-61
2023/04/05 00:36:18;;;;;;;0.08;0.08;;;;;;;12.78;67.75;101174.88;7351329;19;20039;-61
2023/04/05 00:38:44;;;;;;;;;;;;;;;12.78;65.60;101169.63;7350789;19;20015;-61
2023/04/05 00:41:10;;;;;;;0.00;0.00;;;;;;;12.63;70.21;101153.38;7354404;19;19938;-58
2023/04/05 00:43:36;;;;;;;0.00;0.00;;;;;;;12.73;69.56;101170.59;7360266;19;20003;-60
2023/04/05 00:46:04;;;;;;;0.00;0.00;;;;;;;12.68;70.80;101156.75;7352977;19;20444;-60
2023/04/05 00:48:29;;;;;;;0.00;0.00;;;;;;;12.71;70.16;101153.19;7357467;19;20034;-61
2023/04/05 00:50:56;;;;;;;0.00;0.00;;;;;;;12.71;70.10;101151.41;7354954;19;20014;-60
2023/04/05 00:53:22;;;;;;;0.10;0.10;;;;;;;12.70;71.07;101148.84;7356480;19;20102;-61
2023/04/05 00:55:48;;;;;;;0.10;0.10;;;;;;;12.69;70.51;101150.59;7358453;19;20097;-61
2023/04/05 00:58:18;;;;;;;0.00;0.00;;;;;;;12.72;70.38;101144.41;7356715;19;20582;-61
2023/04/05 01:00:52;;;;;;;0.00;0.00;;;;;;;12.63;70.86;101129.78;7357856;19;20474;-61
2023/04/05 01:03:25;;;;;;;0.10;0.10;;;;;;;12.71;71.53;101138.31;7358016;19;20102;-60
2023/04/05 01:06:06;;;;;;;0.00;0.00;;;;;;;12.73;70.45;101131.28;7356173;19;20006;-61
2023/04/05 01:09:05;;;;;;;0.00;0.00;;;;;;;12.75;68.59;101131.25;7359841;19;20013;-61
2023/04/05 01:11:32;;;;;;;0.00;0.00;;;;;;;12.75;68.22;101127.78;7256211;19;2004310;-61
2023/04/05 01:13:59;;;;;;;0.00;0.00;;;;;;;12.75;68.75;101138.25;7360324;19;20680;-61
2023/04/05 01:16:26;;;;;;;0.00;0.00;;;;;;;12.65;69.14;101117.50;7356951;19;20108;-61
2023/04/05 01:18:55;;;;;;;0.00;0.00;;;;;;;12.68;69.96;101119.22;7360790;19;20585;-60
2023/04/05 01:21:38;;;;;;;0.00;0.00;;;;;;;12.80;67.38;101131.13;7358363;19;20014;-61
2023/04/05 01:24:11;;;;;;;0.03;0.03;;;;;;;12.76;70.93;101132.09;7357424;19;20010;-61
2023/04/05 01:26:55;;;;;;;0.00;0.00;;;;;;;12.79;69.23;101130.28;7358045;19;20017;-61
2023/04/05 01:29:36;;;;;;;0.00;0.00;;;;;;;12.80;67.61;101147.72;7351512;19;20718;-61
2023/04/05 01:32:26;;;;;;;0.00;0.00;;;;;;;12.83;68.19;101131.06;7359603;19;20018;-61
2023/04/05 01:35:11;;;;;;;0.10;0.10;;;;;;;12.80;70.81;101134.63;7356454;19;20016;-61
2023/04/05 01:37:39;;;;;;;0.00;0.00;;;;;;;12.44;69.45;101065.66;7348282;19;20007;-61
2023/04/05 01:40:05;;;;;;;;;;;;;;;12.85;66.63;101126.63;7355889;19;20097;-61
2023/04/05 01:42:30;;;;;;;0.10;0.10;;;;;;;12.83;68.03;101138.94;7359866;19;19927;-61
2023/04/05 01:44:57;;;;;;;0.10;0.10;;;;;;;12.81;70.04;101127.59;7355781;19;20048;-61
2023/04/05 01:47:22;;;;;;;0.10;0.10;;;;;;;12.83;70.04;101121.44;7358092;19;20549;-61
2023/04/05 01:49:48;;;;;;;0.08;0.08;;;;;;;12.72;69.92;101105.09;7357625;19;20081;-60
2023/04/05 01:52:13;;;;;;;0.10;0.10;;;;;;;12.84;70.30;101127.53;7357927;19;20010;-61
2023/04/05 01:54:39;;;;;;;0.00;0.00;;;;;;;12.75;69.02;101114.66;7356655;19;20910;-60
2023/04/05 01:57:04;;;;;;;0.00;0.00;;;;;;;12.84;69.12;101123.16;7358078;19;20011;-61
2023/04/05 01:59:30;;;;;;;0.05;0.05;;;;;;;12.83;70.35;101105.72;7344683;19;20047;-61
2023/04/05 02:01:55;;;;;;;0.08;0.08;;;;;;;12.84;69.70;101106.56;7353976;19;20396;-61
2023/04/05 02:04:20;;;;;;;0.00;0.00;;;;;;;12.84;69.80;101089.09;7350294;19;20890;-61
2023/04/05 02:06:46;;;;;;;0.00;0.00;;;;;;;12.87;70.80;101090.75;7356500;19;20011;-61
2023/04/05 02:09:11;;;;;;;0.00;0.00;;;;;;;12.87;69.62;101096.00;7356759;19;20025;-61
2023/04/05 02:11:37;;;;;;;0.00;0.00;;;;;;;12.88;69.68;101084.63;7352548;19;20097;-61
2023/04/05 02:14:03;;;;;;;0.00;0.00;;;;;;;12.89;70.79;101083.72;7353380;19;20753;-60
2023/04/05 02:16:31;;;;;;;0.10;0.10;;;;;;;12.78;69.15;101049.94;7354861;19;20018;-61
2023/04/05 02:18:58;;;;;;;0.00;0.00;;;;;;;12.88;71.06;101079.41;7355686;19;20030;-61
2023/04/05 02:21:27;;;;;;;0.05;0.05;;;;;;;12.84;70.01;101065.50;7354183;19;20015;-61
2023/04/05 02:23:53;;;;;;;0.00;0.00;;;;;;;12.91;70.49;101074.06;7356143;19;20018;-61
2023/04/05 02:26:18;;;;;;;0.05;0.05;;;;;;;12.92;70.50;101075.75;7353011;19;20014;-61
2023/04/05 02:28:44;;;;;;;0.10;0.10;;;;;;;12.93;69.31;101069.66;7349391;19;20018;-61
2023/04/05 02:31:10;;;;;;;0.00;0.00;;;;;;;12.92;70.73;101066.13;7356045;19;20503;-61
2023/04/05 02:33:36;;;;;;;0.00;0.00;;;;;;;12.93;70.46;101069.66;7352928;19;20623;-61
2023/04/05 02:36:07;;;;;;;0.00;0.00;;;;;;;12.93;69.45;101065.25;7357574;19;21365;-61
2023/04/05 02:38:32;;;;;;;0.00;0.00;;;;;;;12.93;70.47;101059.16;7350154;19;20013;-61
2023/04/05 02:40:58;;;;;;;0.00;0.00;;;;;;;12.93;69.94;101065.25;7350792;19;21259;-61
2023/04/05 02:43:23;;;;;;;0.00;0.00;;;;;;;12.87;69.06;101043.56;7353812;19;20036;-61
2023/04/05 02:45:50;;;;;;;0.03;0.03;;;;;;;12.79;70.44;101022.81;7347841;19;20095;-61
2023/04/05 02:48:15;;;;;;;0.10;0.10;;;;;;;12.93;69.30;101054.78;7355816;19;20027;-61
2023/04/05 02:50:41;;;;;;;0.10;0.10;;;;;;;12.92;69.87;101050.41;7350226;19;20061;-61
2023/04/05 02:53:06;;;;;;;0.00;0.00;;;;;;;12.92;69.77;101046.94;7353984;19;20011;-61
2023/04/05 02:55:32;;;;;;;0.00;0.00;;;;;;;12.92;70.57;101049.56;7350546;19;20787;-61
2023/04/05 02:58:01;;;;;;;0.10;0.10;;;;;;;12.92;70.52;101054.78;7353077;19;20598;-61
2023/04/05 03:00:27;;;;;;;0.10;0.10;;;;;;;12.92;70.36;101046.94;7352172;19;20015;-61
2023/04/05 03:02:53;;;;;;;0.00;0.00;;;;;;;12.92;70.38;101041.69;7353850;19;20035;-61
2023/04/05 03:05:19;;;;;;;0.00;0.00;;;;;;;12.91;70.42;101046.06;7332633;19;20010;-60
2023/04/05 03:07:45;;;;;;;0.00;0.00;;;;;;;12.93;70.20;101040.81;7354074;19;20344;-61
2023/04/05 03:10:12;;;;;;;0.10;0.10;;;;;;;12.94;70.49;101034.66;7353925;19;20006;-61
2023/04/05 03:12:38;;;;;;;0.05;0.05;;;;;;;12.80;70.94;101021.06;7352710;19;20018;-62
2023/04/05 03:15:04;;;;;;;0.00;0.00;;;;;;;12.82;69.64;101014.00;7351182;19;20017;-61
2023/04/05 03:17:29;;;;;;;0.10;0.10;;;;;;;12.94;70.94;101024.19;7353687;19;20406;-61
2023/04/05 03:19:55;;;;;;;0.00;0.00;;;;;;;12.50;71.00;100960.72;7335378;19;20021;-61
2023/04/05 03:22:20;;;;;;;0.00;0.00;;;;;;;12.91;70.74;101024.25;7354846;19;20015;-61
2023/04/05 03:24:46;;;;;;;0.05;0.05;;;;;;;12.91;69.97;101019.00;7351828;19;20465;-61
2023/04/05 03:27:13;;;;;;;0.10;0.10;;;;;;;12.93;69.12;101027.72;7356367;19;20466;-61
2023/04/05 03:29:41;;;;;;;0.00;0.00;;;;;;;12.89;69.72;101016.44;7353386;19;20014;-61
2023/04/05 03:32:10;;;;;;;;;;;;;;;12.96;67.87;101011.88;7355912;19;20473;-60
2023/04/05 03:34:37;;;;;;;0.00;0.00;;;;;;;12.93;70.12;101011.97;7349977;19;19938;-61
2023/04/05 03:37:03;;;;;;;0.00;0.00;;;;;;;12.92;70.98;101013.72;7356766;19;20356;-61
2023/04/05 03:39:28;;;;;;;0.10;0.10;;;;;;;12.91;70.81;101008.53;7354424;19;20106;-61
2023/04/05 03:41:55;;;;;;;0.03;0.03;;;;;;;12.86;69.03;100999.94;7353193;19;20011;-61
2023/04/05 03:44:20;;;;;;;0.03;0.03;;;;;;;12.93;70.43;101004.13;7348388;19;20026;-60
2023/04/05 03:46:46;;;;;;;0.10;0.10;;;;;;;12.88;70.40;101000.75;7355971;19;20469;-61
2023/04/05 03:49:11;;;;;;;0.03;0.03;;;;;;;12.90;70.19;101010.28;7345970;19;20017;-60
2023/04/05 03:51:37;;;;;;;0.00;0.00;;;;;;;12.92;70.41;101007.63;7355282;19;20007;-61
2023/04/05 03:54:02;;;;;;;0.10;0.10;;;;;;;12.92;70.82;101015.47;7354546;19;20034;-61
2023/04/05 03:56:28;;;;;;;0.10;0.10;;;;;;;12.92;70.32;101005.00;7354481;19;20007;-61
2023/04/05 03:58:53;;;;;;;0.03;0.03;;;;;;;12.94;70.77;101008.44;7354250;19;21048;-61
2023/04/05 04:01:19;;;;;;;0.10;0.10;;;;;;;12.93;71.54;101001.50;7354999;19;20002;-61
2023/04/05 04:03:44;;;;;;;0.10;0.10;;;;;;;12.93;71.15;100994.50;7349243;19;20079;-62
2023/04/05 04:06:10;;;;;;;0.03;0.03;;;;;;;12.94;70.83;100992.72;7354868;19;20558;-61
2023/04/05 04:08:36;;;;;;;0.10;0.10;;;;;;;12.95;69.91;101007.53;7350957;19;20094;-62
2023/04/05 04:11:02;;;;;;;0.10;0.10;;;;;;;12.95;70.61;101000.53;7353181;19;20006;-61
2023/04/05 04:13:28;;;;;;;0.00;0.00;;;;;;;12.96;71.22;100996.16;7353060;19;20375;-61
2023/04/05 04:15:53;;;;;;;0.10;0.10;;;;;;;12.92;71.37;100984.03;7358625;19;20010;-61
2023/04/05 04:18:18;;;;;;;0.08;0.08;;;;;;;12.97;70.75;100990.84;7355087;19;20457;-61
2023/04/05 04:20:44;;;;;;;0.00;0.00;;;;;;;12.99;70.88;100998.69;7359567;19;20575;-61
2023/04/05 04:23:09;;;;;;;0.00;0.00;;;;;;;13.01;70.25;100993.41;7361435;19;20110;-61
2023/04/05 04:25:36;;;;;;;0.00;0.00;;;;;;;13.02;70.24;100997.75;7360968;19;20089;-61
2023/04/05 04:28:05;;;;;;;0.00;0.00;;;;;;;13.02;70.98;100993.34;7361072;19;20031;-61
2023/04/05 04:30:33;;;;;;;0.08;0.08;;;;;;;13.03;69.92;100992.47;7356969;19;20017;-61
2023/04/05 04:33:02;;;;;;;0.00;0.00;;;;;;;12.94;71.49;100970.00;7359550;19;20360;-61
2023/04/05 04:35:37;;;;;;;0.00;0.00;;;;;;;13.05;70.82;100984.56;7358681;19;20034;-61
2023/04/05 04:38:07;;;;;;;0.03;0.03;;;;;;;13.05;71.01;100990.66;7360773;19;20003;-61
2023/04/05 04:40:40;;;;;;;0.08;0.08;;;;;;;13.04;70.21;100991.56;7358306;19;20031;-62
2023/04/05 04:43:18;;;;;;;0.10;0.10;;;;;;;13.05;71.53;100990.66;7360991;19;20006;-61
2023/04/05 04:45:48;;;;;;;0.00;0.00;;;;;;;12.87;71.34;100957.09;7358038;19;20017;-61
2023/04/05 04:48:15;;;;;;;0.00;0.00;;;;;;;12.95;70.88;100968.22;7362021;19;20014;-61
2023/04/05 04:50:44;;;;;;;0.00;0.00;;;;;;;12.68;71.18;100936.66;7354751;19;20022;-61
2023/04/05 04:53:10;;;;;;;0.10;0.10;;;;;;;12.79;71.65;100953.84;7358681;19;20033;-61
2023/04/05 04:55:37;;;;;;;0.05;0.05;;;;;;;12.98;71.08;100981.25;7359922;19;22389;-61
2023/04/05 04:58:09;;;;;;;0.10;0.10;;;;;;;12.97;71.07;100990.00;7358668;19;20690;-61
2023/04/05 05:00:36;;;;;;;0.10;0.10;;;;;;;12.95;71.91;100973.47;7360578;19;20553;-61
2023/04/05 05:03:02;;;;;;;0.00;0.00;;;;;;;12.93;71.96;100976.13;7356409;19;20035;-61
2023/04/05 05:05:27;;;;;;;0.05;0.05;;;;;;;12.93;70.90;100991.88;7358389;19;20014;-61
2023/04/05 05:07:53;;;;;;;0.00;0.00;;;;;;;12.93;71.79;100980.53;7356594;19;20026;-61
2023/04/05 05:10:19;;;;;;;0.00;0.00;;;;;;;12.92;72.41;100973.53;7354499;19;20010;-61
2023/04/05 05:12:45;;;;;;;0.10;0.10;;;;;;;12.93;71.63;100967.41;7358082;19;20025;-62
2023/04/05 05:15:11;;;;;;;0.10;0.10;;;;;;;12.94;71.50;100974.38;7358938;19;20371;-61
2023/04/05 05:17:38;;;;;;;0.10;0.10;;;;;;;12.95;71.78;100962.97;7358988;19;20034;-60
2023/04/05 05:20:10;;;;;;;0.10;0.10;;;;;;;12.96;70.37;100957.69;7359282;19;20019;-61
2023/04/05 05:22:39;;;;;;;0.00;0.00;;;;;;;12.94;71.59;100950.78;7358675;19;20022;-61
2023/04/05 05:25:06;;;;;;;0.10;0.10;;;;;;;12.96;71.17;100964.69;7357303;19;20014;-61
2023/04/05 05:27:32;;;;;;;0.10;0.10;;;;;;;12.97;71.91;100959.41;7354912;19;20014;-61
2023/04/05 05:29:58;;;;;;;0.00;0.00;;;;;;;12.97;71.93;100955.91;7358747;19;20038;-61
2023/04/05 05:32:23;;;;;;;0.10;0.10;;;;;;;12.98;71.65;100955.91;7354080;19;20007;-61
2023/04/05 05:34:49;;;;;;;0.00;0.00;;;;;;;12.99;71.91;100944.50;7359406;19;20597;-61
2023/04/05 05:37:15;;;;;;;0.10;0.10;;;;;;;13.00;72.28;100945.34;7355795;19;20011;-62
2023/04/05 05:39:43;;;;;;;0.00;0.00;;;;;;;12.93;71.73;100938.59;7360854;19;20017;-62
2023/04/05 05:42:09;;;;;;;0.00;0.00;;;;;;;12.91;71.53;100937.75;7355007;19;21129;-61
2023/04/05 05:44:34;;;;;;;0.00;0.00;;;;;;;13.04;71.64;100957.47;7357526;19;20014;-61
2023/04/05 05:47:00;;;;;;;0.00;0.00;;;;;;;12.92;72.17;100929.84;7352983;19;21387;-61
2023/04/05 05:49:26;;;;;;;0.10;0.10;;;;;;;13.07;72.12;100956.53;7353375;19;20010;-62
2023/04/05 05:51:53;;;;;;;0.00;0.00;;;;;;;13.06;71.95;100955.66;7355699;19;20033;-61
2023/04/05 05:54:19;;;;;;;0.10;0.10;;;;;;;13.10;72.54;100959.06;7359800;19;20018;-62
2023/04/05 05:56:45;;;;;;;0.00;0.00;;;;;;;13.11;71.33;100959.00;7356161;19;20020;-61
2023/04/05 05:59:10;;;;;;;0.10;0.10;;;;;;;13.12;71.52;100950.22;7345838;19;20018;-61
2023/04/05 06:01:37;;;;;;;0.00;0.00;;;;;;;13.14;71.03;100969.41;7355665;19;20025;-62
2023/04/05 06:04:03;;;;;;;0.03;0.03;;;;;;;13.17;70.72;100964.06;7356229;19;20010;-61
2023/04/05 06:06:29;;;;;;;0.08;0.08;;;;;;;13.19;70.49;100953.56;7353400;19;20010;-61
2023/04/05 06:08:55;;;;;;;0.00;0.00;;;;;;;13.19;71.80;100959.66;7354703;19;20007;-61
2023/04/05 06:11:22;;;;;;;0.00;0.00;;;;;;;13.20;71.76;100953.50;7349112;19;20509;-61
2023/04/05 06:13:51;;;;;;;;;;;;;;;13.27;69.01;100953.34;7343554;19;20714;-61
2023/04/05 06:16:17;;;;;;;0.10;0.10;;;;;;;13.24;71.56;100952.53;7354366;19;20006;-61
2023/04/05 06:18:42;;;;;;;0.03;0.03;;;;;;;13.28;70.67;100952.44;7353345;19;20102;-62
2023/04/05 06:21:08;;;;;;;0.10;0.10;;;;;;;13.27;71.74;100948.09;7354668;19;20014;-62
2023/04/05 06:23:33;;;;;;;0.10;0.10;;;;;;;13.27;72.78;100941.09;7354179;19;20014;-61
2023/04/05 06:25:59;;;;;;;0.03;0.03;;;;;;;13.23;72.77;100937.72;7356712;19;20382;-62
2023/04/05 06:28:24;;;;;;;0.05;0.05;;;;;;;13.30;72.59;100937.53;7356765;19;20062;-61
2023/04/05 06:30:49;;;;;;;0.00;0.00;;;;;;;13.31;72.71;100934.00;7354430;19;20013;-61
2023/04/05 06:33:15;;;;;;;0.10;0.10;;;;;;;13.35;70.32;100936.47;7355032;19;20055;-61
2023/04/05 06:35:40;;;;;;;0.10;0.10;;;;;;;13.37;71.70;100936.44;7358178;19;20074;-62
2023/04/05 06:38:06;;;;;;;0.00;0.00;;;;;;;13.40;71.68;100925.84;7350447;19;20013;-61
2023/04/05 06:40:31;;;;;;;0.00;0.00;;;;;;;13.41;71.62;100935.44;7352247;19;20015;-61
2023/04/05 06:42:57;;;;;;;0.08;0.08;;;;;;;13.46;70.52;100933.53;7355475;19;20604;-61
2023/04/05 06:45:22;;;;;;;0.00;0.00;;;;;;;13.48;71.66;100936.94;7352855;19;20018;-62
2023/04/05 06:47:48;;;;;;;0.08;0.08;;;;;;;13.50;71.51;100932.53;7355959;19;20018;-61
2023/04/05 06:50:13;;;;;;;0.10;0.10;;;;;;;13.53;71.77;100934.19;7353241;19;20014;-61
2023/04/05 06:52:39;;;;;;;0.00;0.00;;;;;;;13.54;71.88;100931.53;7352623;19;20010;-62
2023/04/05 06:55:05;;;;;;;0.00;0.00;;;;;;;13.57;71.54;100928.81;7354456;19;20014;-61
2023/04/05 06:57:30;;;;;;;0.00;0.00;;;;;;;13.56;71.54;100919.22;7357319;19;20780;-61
2023/04/05 06:59:56;;;;;;;0.05;0.05;;;;;;;13.63;71.43;100931.22;7348018;19;20011;-61
2023/04/05 07:02:21;;;;;;;0.00;0.00;;;;;;;13.60;71.90;100915.59;7353449;19;20765;-62
2023/04/05 07:04:47;;;;;;;0.00;0.00;;;;;;;13.57;71.31;100915.69;7351207;19;20111;-62
2023/04/05 07:07:13;;;;;;;0.05;0.05;;;;;;;13.72;71.78;100938.81;7355829;19;20027;-61
2023/04/05 07:09:39;;;;;;;0.08;0.08;;;;;;;13.76;71.93;100952.69;7355007;19;20472;-61
2023/04/05 07:12:06;;;;;;;0.00;0.00;;;;;;;13.80;71.50;100956.09;7354923;19;20562;-62
2023/04/05 07:14:33;;;;;;;0.00;0.00;;;;;;;13.82;71.77;100949.03;7351657;19;20750;-61
2023/04/05 07:16:59;;;;;;;0.03;0.03;;;;;;;13.85;71.71;100946.31;7352237;19;20728;-60
2023/04/05 07:19:25;;;;;;;0.03;0.03;;;;;;;13.89;71.78;100942.66;7353912;19;20006;-62
2023/04/05 07:21:50;;;;;;;0.10;0.10;;;;;;;13.90;72.34;100937.38;7351287;19;20035;-62
2023/04/05 07:24:16;;;;;;;0.00;0.00;;;;;;;13.93;71.74;100931.16;7351567;19;20014;-62
2023/04/05 07:26:41;;;;;;;0.10;0.10;;;;;;;13.96;72.07;100931.06;7351353;19;20014;-61
2023/04/05 07:29:09;;;;;;;0.00;0.00;;;;;;;14.01;71.67;100931.78;7353373;19;20010;-61
2023/04/05 07:31:35;;;;;;;0.10;0.10;;;;;;;14.04;70.83;100934.31;7352979;19;20010;-61
2023/04/05 07:34:00;;;;;;;0.00;0.00;;;;;;;14.07;71.35;100930.69;7346714;19;20031;-62
2023/04/05 07:36:27;;;;;;;0.10;0.10;;;;;;;13.99;71.66;100912.59;7352239;19;20384;-62
2023/04/05 07:38:53;;;;;;;0.00;0.00;;;;;;;14.13;71.95;100936.59;7354721;19;20015;-62
2023/04/05 07:41:19;;;;;;;0.05;0.05;;;;;;;14.14;71.34;100930.47;7327638;19;20240;-62
2023/04/05 07:43:45;;;;;;;0.00;0.00;;;;;;;14.21;71.35;100929.31;7349457;19;20010;-61
2023/04/05 07:46:11;;;;;;;0.10;0.10;;;;;;;14.25;70.89;100928.31;7355118;19;20074;-62
2023/04/05 07:48:36;;;;;;;0.10;0.10;;;;;;;14.30;71.51;100932.56;7352769;19;20018;-62
2023/04/05 07:51:03;;;;;;;0.03;0.03;;;;;;;14.33;71.49;100932.44;7353524;19;20045;-62
2023/04/05 07:53:29;;;;;;;0.08;0.08;;;;;;;14.37;71.92;100923.53;7356622;19;20851;-61
2023/04/05 07:55:56;;;;;;;0.08;0.08;;;;;;;14.41;71.47;100927.78;7360227;19;20051;-62
2023/04/05 07:58:22;;;;;;;0.10;0.10;;;;;;;14.46;71.14;100923.22;7352653;19;20094;-61
2023/04/05 08:00:48;;;;;;;0.10;0.10;;;;;;;14.48;71.74;100921.44;7360013;19;20010;-62
2023/04/05 08:03:13;;;;;;;0.10;0.10;;;;;;;14.50;71.44;100922.25;7356222;19;20032;-62
2023/04/05 08:05:39;;;;;;;0.10;0.10;;;;;;;14.54;70.85;100924.69;7353725;19;20030;-61
2023/04/05 08:08:07;;;;;;;0.00;0.00;;;;;;;14.56;71.11;100919.41;7359999;19;20035;-61
2023/04/05 08:10:37;;;;;;;0.00;0.00;;;;;;;14.64;70.09;100912.06;7361039;19;20014;-62
2023/04/05 08:13:04;;;;;;;0.10;0.10;;;;;;;14.62;71.22;100913.91;7357164;19;21076;-61
2023/04/05 08:15:32;;;;;;;0.00;0.00;;;;;;;14.68;70.38;100916.31;7357929;19;20031;-61
2023/04/05 08:17:57;;;;;;;0.00;0.00;;;;;;;14.69;70.41;100910.13;7358810;19;20020;-62
2023/04/05 08:20:22;;;;;;;0.10;0.10;;;;;;;14.76;69.97;100909.03;7356605;19;20010;-62
2023/04/05 08:22:48;;;;;;;0.00;0.00;;;;;;;14.83;70.29;100914.03;7359617;19;20404;-62
2023/04/05 08:25:13;;;;;;;0.00;0.00;;;;;;;14.81;70.68;100892.22;7357772;19;20016;-62
2023/04/05 08:27:39;;;;;;;0.00;0.00;;;;;;;14.94;70.26;100914.50;7361861;19;20018;-62
2023/04/05 08:30:06;;;;;;;0.10;0.10;;;;;;;14.99;70.59;100902.03;7360929;19;20009;-61
2023/04/05 08:32:33;;;;;;;0.00;0.00;;;;;;;15.05;70.20;100902.69;7355449;19;20814;-62
2023/04/05 08:34:58;;;;;;;0.00;0.00;;;;;;;15.10;70.75;100907.75;7355728;19;20404;-62
2023/04/05 08:37:23;;;;;;;0.03;0.03;;;;;;;15.16;69.73;100910.16;7356587;19;20006;-62
2023/04/05 08:39:49;;;;;;;0.05;0.05;;;;;;;15.23;69.14;100916.03;7359794;19;20078;-62
2023/04/05 08:42:25;;;;;;;0.10;0.10;;;;;;;15.29;69.21;100906.13;7354595;19;20007;-63
2023/04/05 08:44:51;;;;;;;0.08;0.08;;;;;;;15.15;69.39;100887.38;7351273;19;20158;-62
2023/04/05 08:47:21;;;;;;;0.10;0.10;;;;;;;15.27;69.11;100900.06;7340133;19;20142;-61
2023/04/05 08:49:47;;;;;;;0.10;0.10;;;;;;;15.37;68.13;100915.50;7347731;19;21139;-62
2023/04/05 08:52:13;;;;;;;0.10;0.10;;;;;;;15.20;69.29;100880.16;7356953;19;20014;-62
2023/04/05 08:54:39;;;;;;;0.08;0.08;;;;;;;15.39;69.15;100900.50;7358141;19;20007;-61
2023/04/05 08:57:06;;;;;;;0.10;0.10;;;;;;;15.39;69.14;100903.13;7334783;19;20043;-62
2023/04/05 08:59:35;;;;;;;0.00;0.00;;;;;;;15.43;69.03;100896.84;7353971;19;20046;-62
2023/04/05 09:02:02;;;;;;;0.10;0.10;;;;;;;15.33;68.90;100883.19;7338400;19;20719;-62
2023/04/05 09:04:34;;;;;;;0.00;0.00;;;;;;;15.48;68.58;100905.41;7347682;19;20006;-62
2023/04/05 09:07:02;;;;;;;0.10;0.10;;;;;;;15.48;69.31;100905.41;7347682;19;20006;-62
2023/04/05 09:09:33;;;;;;;0.00;0.00;;;;;;;15.51;69.12;100918.44;7344390;19;20014;-61
2023/04/05 09:12:00;;;;;;;0.05;0.05;;;;;;;15.50;69.37;100917.56;7337590;19;20007;-64
2023/04/05 09:14:26;;;;;;;0.08;0.08;;;;;;;15.54;69.33;100926.22;7329620;19;20971;-62
2023/04/05 09:16:53;;;;;;;0.03;0.03;;;;;;;15.57;69.02;100912.94;7345390;19;20015;-62
2023/04/05 09:19:18;;;;;;;0.00;0.00;;;;;;;15.65;69.06;100910.88;7345342;19;20018;-62
2023/04/05 09:22:01;;;;;;;0.00;0.00;;;;;;;15.79;68.15;100920.84;7347807;19;20039;-62
2023/04/05 09:24:38;;;;;;;0.10;0.10;;;;;;;15.85;68.05;100917.13;7346532;19;20039;-62
2023/04/05 09:27:14;;;;;;;0.00;0.00;;;;;;;15.91;67.84;100917.72;7348726;19;20011;-62
2023/04/05 09:29:41;;;;;;;0.10;0.10;;;;;;;15.93;67.60;100917.66;7346295;19;20926;-62
2023/04/05 09:32:08;;;;;;;;;;;;;;;16.01;66.83;100915.56;7343120;19;20006;-63
2023/04/05 09:34:37;;;;;;;0.00;0.00;;;;;;;15.98;67.33;100920.97;7358764;19;21052;-62
2023/04/05 09:37:17;;;;;;;0.08;0.08;;;;;;;16.05;66.82;100919.78;7352831;19;20597;-62
2023/04/05 09:39:45;;;;;;;0.10;0.10;;;;;;;16.00;67.47;100913.84;7356639;19;20066;-62
2023/04/05 09:42:14;;;;;;;0.10;0.10;;;;;;;16.00;67.80;100919.13;7354949;19;20014;-62
2023/04/05 09:45:03;;;;;;;0.00;0.00;;;;;;;16.06;66.89;100913.59;7357795;19;20391;-61
2023/04/05 09:47:31;;;;;;;0.10;0.10;;;;;;;16.01;67.94;100915.56;7251032;19;2004810;-61
2023/04/05 09:49:57;;;;;;;;;;;;;;;16.11;66.54;100919.50;7352815;19;20024;-62
2023/04/05 09:52:31;;;;;;;0.10;0.10;;;;;;;16.08;66.40;100906.50;7347390;19;19926;-62
2023/04/05 09:55:02;;;;;;;0.10;0.10;;;;;;;16.02;66.17;100909.38;7349136;19;20014;-62
2023/04/05 09:57:33;;;;;;;0.03;0.03;;;;;;;16.14;67.03;100922.03;7354404;19;20113;-62
2023/04/05 09:59:58;;;;;;;0.03;0.03;;;;;;;16.10;66.87;100912.53;7354999;19;20463;-62
2023/04/05 10:02:24;;;;;;;0.10;0.10;;;;;;;16.14;67.18;100921.19;7355133;19;20021;-62
2023/04/05 10:04:50;;;;;;;0.10;0.10;;;;;;;16.14;67.26;100911.50;7356335;19;20010;-62
2023/04/05 10:07:18;;;;;;;0.10;0.10;;;;;;;16.09;66.52;100892.38;7358174;19;20043;-62
2023/04/05 10:09:45;;;;;;;0.10;0.10;;;;;;;16.18;67.11;100891.16;7357115;19;20574;-62
2023/04/05 10:12:25;;;;;;;0.10;0.10;;;;;;;16.35;66.19;100904.44;7351968;19;20013;-61
2023/04/05 10:14:50;;;;;;;0.10;0.10;;;;;;;16.37;66.42;100901.72;7355962;19;20861;-62
2023/04/05 10:17:50;;;;;;;0.00;0.00;;;;;;;16.48;66.24;100910.06;7355448;19;20006;-62
2023/04/05 10:20:19;;;;;;;0.10;0.10;;;;;;;16.50;66.48;100898.50;7250168;19;2004193;-62
2023/04/05 10:23:11;;;;;;;0.10;0.10;;;;;;;16.61;66.51;100905.94;7343438;19;20022;-62
2023/04/05 10:25:45;;;;;;;0.10;0.10;;;;;;;16.66;66.80;100903.94;7324219;19;20006;-61
2023/04/05 10:28:15;;;;;;;0.10;0.10;;;;;;;16.82;66.70;100906.78;7331757;19;20017;-62
2023/04/05 10:30:50;;;;;;;0.10;0.10;;;;;;;16.99;66.90;100900.75;7341247;19;20014;-62
2023/04/05 10:33:20;;;;;;;0.00;0.00;;;;;;;17.18;66.74;100901.59;7342274;19;20018;-62
2023/04/05 10:36:08;;;;;;;0.10;0.10;;;;;;;17.50;67.51;100909.78;7341482;19;20014;-62
2023/04/05 10:39:03;;;;;;;0.10;0.10;;;;;;;17.86;66.10;100905.38;7342180;19;20019;-62
2023/04/05 10:41:33;;;;;;;0.10;0.10;;;;;;;18.10;65.11;100890.06;7240635;19;2004575;-62
2023/04/05 10:44:00;;;;;;;0.10;0.10;;;;;;;18.26;63.53;100889.28;7341343;19;20035;-62
2023/04/05 10:46:26;;;;;;;;;;;;;;;18.55;64.36;100893.03;7341602;19;20021;-62
2023/04/05 10:49:10;;;;;;;0.10;0.10;;;;;;;18.56;63.12;100894.75;7346195;19;19950;-62
2023/04/05 10:51:37;;;;;;;0.00;0.00;;;;;;;18.72;62.26;100879.81;7341696;19;20056;-62
2023/04/05 10:54:04;;;;;;;0.10;0.10;;;;;;;18.86;61.43;100893.16;7343921;19;20928;-62
2023/04/05 10:56:30;;;;;;;0.10;0.10;;;;;;;18.91;61.42;100883.19;7343356;19;20015;-62
2023/04/05 10:58:58;;;;;;;0.10;0.10;;;;;;;19.01;61.69;100885.28;7340559;19;20053;-62
2023/04/05 11:01:24;;;;;;;0.10;0.10;;;;;;;19.09;61.66;100891.03;7344402;19;20030;-62
2023/04/05 11:03:51;;;;;;;0.10;0.10;;;;;;;19.20;61.77;100891.28;7340362;19;20798;-62
2023/04/05 11:06:46;;;;;;;0.00;0.00;;;;;;;19.31;61.01;100894.22;7345168;19;20069;-62
2023/04/05 11:09:20;;;;;;;0.10;0.10;;;;;;;19.47;60.34;100893.34;7243693;19;2004475;-61
2023/04/05 11:11:51;;;;;;;0.10;0.10;;;;;;;19.40;60.16;100866.34;7344250;19;20010;-62
2023/04/05 11:14:34;;;;;;;0.17;0.17;;;;;;;19.56;60.03;100898.09;7343607;19;20014;-62
2023/04/05 11:16:59;;;;;;;0.10;0.10;;;;;;;19.50;58.97;100887.88;7343070;19;20011;-62
2023/04/05 11:19:44;;;;;;;0.10;0.10;;;;;;;19.55;60.10;100891.09;7343732;19;22370;-63
2023/04/05 11:22:09;;;;;;;0.10;0.10;;;;;;;19.48;59.24;100889.75;7344114;19;20091;-62
2023/04/05 11:24:55;;;;;;;0.10;0.10;;;;;;;19.55;59.84;100880.50;7340438;19;20153;-62
2023/04/05 11:27:28;;;;;;;0.10;0.10;;;;;;;19.51;59.52;100881.63;7340403;19;20034;-62
2023/04/05 11:29:55;;;;;;;0.10;0.10;;;;;;;19.44;59.81;100881.97;7334819;19;20098;-61
2023/04/05 11:32:21;;;;;;;0.10;0.10;;;;;;;19.42;60.06;100877.72;7341460;19;20029;-62